sensor_id;sensor_type;location;lat;lon;timestamp;P1;durP1;ratioP1;P2;durP2;ratioP2
42104;SDS011;68365;51.472;5.712;2023-05-03T00:01:35;8.00;;;4.78;;
42104;SDS011;68365;51.472;5.712;2023-05-03T00:04:01;10.15;;;4.85;;
42104;SDS011;68365;51.472;5.712;2023-05-03T00:06:27;6.72;;;4.72;;
42104;SDS011;68365;51.472;5.712;2023-05-03T00:08:53;6.50;;;4.70;;
42104;SDS011;68365;51.472;5.712;2023-05-03T00:11:19;8.45;;;4.90;;
42104;SDS011;68365;51.472;5.712;2023-05-03T00:13:45;6.75;;;4.45;;
42104;SDS011;68365;51.472;5.712;2023-05-03T00:16:11;8.48;;;4.43;;
42104;SDS011;68365;51.472;5.712;2023-05-03T00:18:38;7.25;;;4.85;;
42104;SDS011;68365;51.472;5.712;2023-05-03T00:21:04;9.40;;;4.70;;
42104;SDS011;68365;51.472;5.712;2023-05-03T00:23:31;8.27;;;4.43;;
42104;SDS011;68365;51.472;5.712;2023-05-03T00:25:57;8.10;;;4.82;;
42104;SDS011;68365;51.472;5.712;2023-05-03T00:28:24;7.30;;;4.70;;
42104;SDS011;68365;51.472;5.712;2023-05-03T00:30:52;6.50;;;4.57;;
42104;SDS011;68365;51.472;5.712;2023-05-03T00:33:18;6.47;;;4.80;;
42104;SDS011;68365;51.472;5.712;2023-05-03T00:35:44;6.50;;;4.70;;
42104;SDS011;68365;51.472;5.712;2023-05-03T00:38:12;7.28;;;4.40;;
42104;SDS011;68365;51.472;5.712;2023-05-03T00:40:39;7.13;;;4.63;;
42104;SDS011;68365;51.472;5.712;2023-05-03T00:43:05;6.32;;;4.13;;
42104;SDS011;68365;51.472;5.712;2023-05-03T00:45:32;6.63;;;4.68;;
42104;SDS011;68365;51.472;5.712;2023-05-03T00:47:59;7.07;;;4.72;;
42104;SDS011;68365;51.472;5.712;2023-05-03T00:50:26;6.30;;;4.45;;
42104;SDS011;68365;51.472;5.712;2023-05-03T00:52:52;8.35;;;4.32;;
42104;SDS011;68365;51.472;5.712;2023-05-03T00:55:18;5.93;;;4.07;;
42104;SDS011;68365;51.472;5.712;2023-05-03T00:57:45;6.53;;;4.20;;
42104;SDS011;68365;51.472;5.712;2023-05-03T01:00:11;6.35;;;4.15;;
42104;SDS011;68365;51.472;5.712;2023-05-03T01:02:38;6.47;;;4.10;;
42104;SDS011;68365;51.472;5.712;2023-05-03T01:05:04;6.30;;;4.07;;
42104;SDS011;68365;51.472;5.712;2023-05-03T01:10:31;6.95;;;4.15;;
42104;SDS011;68365;51.472;5.712;2023-05-03T01:13:23;7.43;;;4.35;;
42104;SDS011;68365;51.472;5.712;2023-05-03T01:16:09;7.95;;;4.50;;
42104;SDS011;68365;51.472;5.712;2023-05-03T01:18:48;6.70;;;4.47;;
42104;SDS011;68365;51.472;5.712;2023-05-03T01:21:16;5.30;;;4.00;;
42104;SDS011;68365;51.472;5.712;2023-05-03T01:23:46;5.70;;;4.10;;
42104;SDS011;68365;51.472;5.712;2023-05-03T01:26:27;6.35;;;4.38;;
42104;SDS011;68365;51.472;5.712;2023-05-03T01:28:54;7.38;;;4.65;;
42104;SDS011;68365;51.472;5.712;2023-05-03T01:34:21;5.60;;;4.25;;
42104;SDS011;68365;51.472;5.712;2023-05-03T01:36:59;5.63;;;3.70;;
42104;SDS011;68365;51.472;5.712;2023-05-03T01:42:35;5.20;;;3.95;;
42104;SDS011;68365;51.472;5.712;2023-05-03T01:45:05;6.47;;;4.15;;
42104;SDS011;68365;51.472;5.712;2023-05-03T01:47:32;6.63;;;4.22;;
42104;SDS011;68365;51.472;5.712;2023-05-03T01:49:58;6.82;;;4.00;;
42104;SDS011;68365;51.472;5.712;2023-05-03T01:52:24;5.97;;;3.92;;
42104;SDS011;68365;51.472;5.712;2023-05-03T01:54:53;6.38;;;4.15;;
42104;SDS011;68365;51.472;5.712;2023-05-03T01:57:18;6.78;;;4.00;;
42104;SDS011;68365;51.472;5.712;2023-05-03T01:59:44;6.47;;;3.60;;
42104;SDS011;68365;51.472;5.712;2023-05-03T02:02:10;5.63;;;3.72;;
42104;SDS011;68365;51.472;5.712;2023-05-03T02:04:36;4.80;;;3.67;;
42104;SDS011;68365;51.472;5.712;2023-05-03T02:07:02;6.32;;;3.78;;
42104;SDS011;68365;51.472;5.712;2023-05-03T02:09:29;6.30;;;3.60;;
42104;SDS011;68365;51.472;5.712;2023-05-03T02:11:55;6.00;;;3.75;;
42104;SDS011;68365;51.472;5.712;2023-05-03T02:14:20;5.82;;;3.80;;
42104;SDS011;68365;51.472;5.712;2023-05-03T02:16:46;4.65;;;3.80;;
42104;SDS011;68365;51.472;5.712;2023-05-03T02:19:12;5.72;;;3.78;;
42104;SDS011;68365;51.472;5.712;2023-05-03T02:21:38;5.63;;;3.85;;
42104;SDS011;68365;51.472;5.712;2023-05-03T02:24:04;4.90;;;3.28;;
42104;SDS011;68365;51.472;5.712;2023-05-03T02:26:30;6.55;;;3.50;;
42104;SDS011;68365;51.472;5.712;2023-05-03T02:28:56;5.38;;;3.70;;
42104;SDS011;68365;51.472;5.712;2023-05-03T02:31:22;6.13;;;3.65;;
42104;SDS011;68365;51.472;5.712;2023-05-03T02:33:49;5.60;;;3.58;;
42104;SDS011;68365;51.472;5.712;2023-05-03T02:36:19;4.72;;;3.65;;
42104;SDS011;68365;51.472;5.712;2023-05-03T02:38:45;5.03;;;3.63;;
42104;SDS011;68365;51.472;5.712;2023-05-03T02:41:11;3.47;;;3.08;;
42104;SDS011;68365;51.472;5.712;2023-05-03T02:43:37;4.88;;;3.50;;
42104;SDS011;68365;51.472;5.712;2023-05-03T02:46:03;4.80;;;3.35;;
42104;SDS011;68365;51.472;5.712;2023-05-03T02:48:29;6.03;;;3.65;;
42104;SDS011;68365;51.472;5.712;2023-05-03T02:50:55;4.93;;;3.53;;
42104;SDS011;68365;51.472;5.712;2023-05-03T02:53:21;4.65;;;3.83;;
42104;SDS011;68365;51.472;5.712;2023-05-03T02:55:48;4.55;;;3.15;;
42104;SDS011;68365;51.472;5.712;2023-05-03T02:58:17;4.10;;;3.05;;
42104;SDS011;68365;51.472;5.712;2023-05-03T03:00:43;5.55;;;3.22;;
42104;SDS011;68365;51.472;5.712;2023-05-03T03:03:09;4.95;;;3.50;;
42104;SDS011;68365;51.472;5.712;2023-05-03T03:05:35;4.72;;;3.28;;
42104;SDS011;68365;51.472;5.712;2023-05-03T03:08:00;4.28;;;3.25;;
42104;SDS011;68365;51.472;5.712;2023-05-03T03:10:26;4.55;;;3.30;;
42104;SDS011;68365;51.472;5.712;2023-05-03T03:12:52;5.47;;;3.35;;
42104;SDS011;68365;51.472;5.712;2023-05-03T03:15:27;5.13;;;3.45;;
42104;SDS011;68365;51.472;5.712;2023-05-03T03:18:07;6.35;;;3.40;;
42104;SDS011;68365;51.472;5.712;2023-05-03T03:20:34;4.75;;;3.42;;
42104;SDS011;68365;51.472;5.712;2023-05-03T03:23:02;4.85;;;3.35;;
42104;SDS011;68365;51.472;5.712;2023-05-03T03:25:28;5.45;;;3.80;;
42104;SDS011;68365;51.472;5.712;2023-05-03T03:27:54;4.10;;;3.35;;
42104;SDS011;68365;51.472;5.712;2023-05-03T03:30:20;3.85;;;3.05;;
42104;SDS011;68365;51.472;5.712;2023-05-03T03:32:45;3.83;;;2.75;;
42104;SDS011;68365;51.472;5.712;2023-05-03T03:35:11;4.15;;;3.47;;
42104;SDS011;68365;51.472;5.712;2023-05-03T03:37:41;5.18;;;2.92;;
42104;SDS011;68365;51.472;5.712;2023-05-03T03:40:07;5.47;;;3.20;;
42104;SDS011;68365;51.472;5.712;2023-05-03T03:42:37;4.70;;;3.40;;
42104;SDS011;68365;51.472;5.712;2023-05-03T03:45:04;4.32;;;3.10;;
42104;SDS011;68365;51.472;5.712;2023-05-03T03:47:34;3.67;;;2.90;;
42104;SDS011;68365;51.472;5.712;2023-05-03T03:50:00;5.07;;;3.15;;
42104;SDS011;68365;51.472;5.712;2023-05-03T03:52:26;3.50;;;3.13;;
42104;SDS011;68365;51.472;5.712;2023-05-03T03:54:52;4.72;;;3.13;;
42104;SDS011;68365;51.472;5.712;2023-05-03T03:57:18;3.72;;;2.78;;
42104;SDS011;68365;51.472;5.712;2023-05-03T03:59:44;3.97;;;3.03;;
42104;SDS011;68365;51.472;5.712;2023-05-03T04:02:10;4.53;;;3.05;;
42104;SDS011;68365;51.472;5.712;2023-05-03T04:04:36;4.18;;;3.33;;
42104;SDS011;68365;51.472;5.712;2023-05-03T04:07:02;4.45;;;2.80;;
42104;SDS011;68365;51.472;5.712;2023-05-03T04:09:28;4.70;;;3.08;;
42104;SDS011;68365;51.472;5.712;2023-05-03T04:11:54;5.45;;;2.95;;
42104;SDS011;68365;51.472;5.712;2023-05-03T04:14:21;3.95;;;2.95;;
42104;SDS011;68365;51.472;5.712;2023-05-03T04:16:50;3.78;;;2.90;;
42104;SDS011;68365;51.472;5.712;2023-05-03T04:19:19;4.05;;;3.20;;
42104;SDS011;68365;51.472;5.712;2023-05-03T04:21:46;6.00;;;3.10;;
42104;SDS011;68365;51.472;5.712;2023-05-03T04:24:14;3.50;;;3.00;;
42104;SDS011;68365;51.472;5.712;2023-05-03T04:26:41;3.70;;;2.72;;
42104;SDS011;68365;51.472;5.712;2023-05-03T04:29:10;4.80;;;3.20;;
42104;SDS011;68365;51.472;5.712;2023-05-03T04:31:39;4.25;;;2.65;;
42104;SDS011;68365;51.472;5.712;2023-05-03T04:34:05;3.05;;;2.65;;
42104;SDS011;68365;51.472;5.712;2023-05-03T04:36:31;3.45;;;2.67;;
42104;SDS011;68365;51.472;5.712;2023-05-03T04:38:59;4.10;;;2.90;;
42104;SDS011;68365;51.472;5.712;2023-05-03T04:41:25;3.30;;;2.67;;
42104;SDS011;68365;51.472;5.712;2023-05-03T04:43:51;4.53;;;2.80;;
42104;SDS011;68365;51.472;5.712;2023-05-03T04:46:18;5.07;;;3.10;;
42104;SDS011;68365;51.472;5.712;2023-05-03T04:48:44;3.67;;;2.95;;
42104;SDS011;68365;51.472;5.712;2023-05-03T04:51:10;5.85;;;3.30;;
42104;SDS011;68365;51.472;5.712;2023-05-03T04:53:44;3.20;;;2.60;;
42104;SDS011;68365;51.472;5.712;2023-05-03T04:56:13;3.58;;;2.65;;
42104;SDS011;68365;51.472;5.712;2023-05-03T04:58:39;4.70;;;2.72;;
42104;SDS011;68365;51.472;5.712;2023-05-03T05:01:06;3.72;;;2.40;;
42104;SDS011;68365;51.472;5.712;2023-05-03T05:03:32;2.92;;;2.55;;
42104;SDS011;68365;51.472;5.712;2023-05-03T05:05:58;4.07;;;2.50;;
42104;SDS011;68365;51.472;5.712;2023-05-03T05:08:24;4.97;;;2.83;;
42104;SDS011;68365;51.472;5.712;2023-05-03T05:10:50;5.15;;;2.55;;
42104;SDS011;68365;51.472;5.712;2023-05-03T05:13:16;3.83;;;2.80;;
42104;SDS011;68365;51.472;5.712;2023-05-03T05:15:45;3.55;;;2.60;;
42104;SDS011;68365;51.472;5.712;2023-05-03T05:18:11;3.92;;;2.42;;
42104;SDS011;68365;51.472;5.712;2023-05-03T05:20:40;3.72;;;2.58;;
42104;SDS011;68365;51.472;5.712;2023-05-03T05:23:06;5.20;;;2.42;;
42104;SDS011;68365;51.472;5.712;2023-05-03T05:25:32;3.67;;;2.47;;
42104;SDS011;68365;51.472;5.712;2023-05-03T05:27:57;2.85;;;2.45;;
42104;SDS011;68365;51.472;5.712;2023-05-03T05:30:26;3.53;;;2.47;;
42104;SDS011;68365;51.472;5.712;2023-05-03T05:32:59;3.38;;;2.60;;
42104;SDS011;68365;51.472;5.712;2023-05-03T05:35:28;2.75;;;2.45;;
42104;SDS011;68365;51.472;5.712;2023-05-03T05:37:57;3.90;;;2.90;;
42104;SDS011;68365;51.472;5.712;2023-05-03T05:40:27;4.15;;;2.90;;
42104;SDS011;68365;51.472;5.712;2023-05-03T05:42:53;3.88;;;2.58;;
42104;SDS011;68365;51.472;5.712;2023-05-03T05:45:19;4.45;;;2.75;;
42104;SDS011;68365;51.472;5.712;2023-05-03T05:47:45;3.72;;;2.47;;
42104;SDS011;68365;51.472;5.712;2023-05-03T05:50:13;3.08;;;2.35;;
42104;SDS011;68365;51.472;5.712;2023-05-03T05:52:52;2.75;;;2.25;;
42104;SDS011;68365;51.472;5.712;2023-05-03T05:55:20;3.47;;;2.42;;
42104;SDS011;68365;51.472;5.712;2023-05-03T05:57:46;3.58;;;2.53;;
42104;SDS011;68365;51.472;5.712;2023-05-03T06:00:12;3.03;;;2.30;;
42104;SDS011;68365;51.472;5.712;2023-05-03T06:02:42;3.13;;;2.20;;
42104;SDS011;68365;51.472;5.712;2023-05-03T06:05:09;2.30;;;2.10;;
42104;SDS011;68365;51.472;5.712;2023-05-03T06:07:36;2.83;;;2.17;;
42104;SDS011;68365;51.472;5.712;2023-05-03T06:10:02;3.63;;;2.35;;
42104;SDS011;68365;51.472;5.712;2023-05-03T06:12:28;3.35;;;2.55;;
42104;SDS011;68365;51.472;5.712;2023-05-03T06:14:54;3.38;;;2.40;;
42104;SDS011;68365;51.472;5.712;2023-05-03T06:17:21;2.70;;;2.20;;
42104;SDS011;68365;51.472;5.712;2023-05-03T06:19:49;3.42;;;1.92;;
42104;SDS011;68365;51.472;5.712;2023-05-03T06:22:19;2.75;;;2.40;;
42104;SDS011;68365;51.472;5.712;2023-05-03T06:24:50;3.05;;;2.28;;
42104;SDS011;68365;51.472;5.712;2023-05-03T06:27:17;3.20;;;2.40;;
42104;SDS011;68365;51.472;5.712;2023-05-03T06:29:43;4.03;;;2.47;;
42104;SDS011;68365;51.472;5.712;2023-05-03T06:32:14;3.42;;;2.47;;
42104;SDS011;68365;51.472;5.712;2023-05-03T06:34:42;2.70;;;2.25;;
42104;SDS011;68365;51.472;5.712;2023-05-03T06:37:18;2.90;;;2.35;;
42104;SDS011;68365;51.472;5.712;2023-05-03T06:39:44;2.67;;;2.33;;
42104;SDS011;68365;51.472;5.712;2023-05-03T06:42:14;3.33;;;2.60;;
42104;SDS011;68365;51.472;5.712;2023-05-03T06:44:40;3.20;;;2.72;;
42104;SDS011;68365;51.472;5.712;2023-05-03T06:47:07;3.83;;;2.42;;
42104;SDS011;68365;51.472;5.712;2023-05-03T06:49:33;4.35;;;2.40;;
42104;SDS011;68365;51.472;5.712;2023-05-03T06:51:59;3.50;;;2.35;;
42104;SDS011;68365;51.472;5.712;2023-05-03T06:54:25;2.55;;;2.33;;
42104;SDS011;68365;51.472;5.712;2023-05-03T06:56:51;2.97;;;2.20;;
42104;SDS011;68365;51.472;5.712;2023-05-03T06:59:20;3.85;;;2.67;;
42104;SDS011;68365;51.472;5.712;2023-05-03T07:01:48;3.35;;;2.50;;
42104;SDS011;68365;51.472;5.712;2023-05-03T07:04:15;3.38;;;2.60;;
42104;SDS011;68365;51.472;5.712;2023-05-03T07:06:41;3.08;;;2.10;;
42104;SDS011;68365;51.472;5.712;2023-05-03T07:09:06;3.47;;;2.00;;
42104;SDS011;68365;51.472;5.712;2023-05-03T07:11:35;3.10;;;2.30;;
42104;SDS011;68365;51.472;5.712;2023-05-03T07:14:07;3.65;;;2.10;;
42104;SDS011;68365;51.472;5.712;2023-05-03T07:16:33;3.03;;;2.03;;
42104;SDS011;68365;51.472;5.712;2023-05-03T07:19:02;3.38;;;2.42;;
42104;SDS011;68365;51.472;5.712;2023-05-03T07:21:28;2.67;;;2.20;;
42104;SDS011;68365;51.472;5.712;2023-05-03T07:23:54;4.55;;;2.40;;
42104;SDS011;68365;51.472;5.712;2023-05-03T07:26:23;2.10;;;1.90;;
42104;SDS011;68365;51.472;5.712;2023-05-03T07:28:52;3.25;;;2.50;;
42104;SDS011;68365;51.472;5.712;2023-05-03T07:31:34;3.28;;;2.47;;
42104;SDS011;68365;51.472;5.712;2023-05-03T07:34:00;3.58;;;2.10;;
42104;SDS011;68365;51.472;5.712;2023-05-03T07:36:29;3.58;;;2.38;;
42104;SDS011;68365;51.472;5.712;2023-05-03T07:38:55;3.08;;;2.25;;
42104;SDS011;68365;51.472;5.712;2023-05-03T07:41:21;3.85;;;2.30;;
42104;SDS011;68365;51.472;5.712;2023-05-03T07:43:48;3.45;;;2.40;;
42104;SDS011;68365;51.472;5.712;2023-05-03T07:46:14;2.70;;;2.10;;
42104;SDS011;68365;51.472;5.712;2023-05-03T07:48:43;4.93;;;2.03;;
42104;SDS011;68365;51.472;5.712;2023-05-03T07:51:09;3.13;;;2.10;;
42104;SDS011;68365;51.472;5.712;2023-05-03T07:53:35;3.65;;;2.50;;
42104;SDS011;68365;51.472;5.712;2023-05-03T07:56:03;3.08;;;2.20;;
42104;SDS011;68365;51.472;5.712;2023-05-03T07:58:32;5.53;;;2.40;;
42104;SDS011;68365;51.472;5.712;2023-05-03T08:00:58;3.78;;;2.45;;
42104;SDS011;68365;51.472;5.712;2023-05-03T08:03:24;3.17;;;2.20;;
42104;SDS011;68365;51.472;5.712;2023-05-03T08:05:49;3.92;;;2.30;;
42104;SDS011;68365;51.472;5.712;2023-05-03T08:08:15;3.35;;;2.10;;
42104;SDS011;68365;51.472;5.712;2023-05-03T08:10:42;5.00;;;2.25;;
42104;SDS011;68365;51.472;5.712;2023-05-03T08:13:08;3.58;;;2.30;;
42104;SDS011;68365;51.472;5.712;2023-05-03T08:15:37;6.53;;;2.30;;
42104;SDS011;68365;51.472;5.712;2023-05-03T08:18:04;4.57;;;2.08;;
42104;SDS011;68365;51.472;5.712;2023-05-03T08:20:30;3.83;;;2.38;;
42104;SDS011;68365;51.472;5.712;2023-05-03T08:23:00;3.20;;;2.08;;
42104;SDS011;68365;51.472;5.712;2023-05-03T08:25:29;5.55;;;2.33;;
42104;SDS011;68365;51.472;5.712;2023-05-03T08:27:55;2.95;;;2.10;;
42104;SDS011;68365;51.472;5.712;2023-05-03T08:30:28;7.07;;;2.10;;
42104;SDS011;68365;51.472;5.712;2023-05-03T08:33:02;3.63;;;2.33;;
42104;SDS011;68365;51.472;5.712;2023-05-03T08:35:28;3.30;;;2.00;;
42104;SDS011;68365;51.472;5.712;2023-05-03T08:38:01;4.10;;;2.40;;
42104;SDS011;68365;51.472;5.712;2023-05-03T08:40:32;2.63;;;1.80;;
42104;SDS011;68365;51.472;5.712;2023-05-03T08:43:06;4.80;;;2.10;;
42104;SDS011;68365;51.472;5.712;2023-05-03T08:45:43;2.30;;;2.10;;
42104;SDS011;68365;51.472;5.712;2023-05-03T08:48:10;5.22;;;2.50;;
42104;SDS011;68365;51.472;5.712;2023-05-03T08:50:38;7.38;;;2.10;;
42104;SDS011;68365;51.472;5.712;2023-05-03T08:53:08;6.30;;;2.28;;
42104;SDS011;68365;51.472;5.712;2023-05-03T08:55:35;3.17;;;2.15;;
42104;SDS011;68365;51.472;5.712;2023-05-03T08:58:02;3.85;;;2.30;;
42104;SDS011;68365;51.472;5.712;2023-05-03T09:00:36;4.00;;;2.33;;
42104;SDS011;68365;51.472;5.712;2023-05-03T09:03:16;3.50;;;2.35;;
42104;SDS011;68365;51.472;5.712;2023-05-03T09:05:43;3.10;;;2.15;;
42104;SDS011;68365;51.472;5.712;2023-05-03T09:08:10;4.63;;;2.70;;
42104;SDS011;68365;51.472;5.712;2023-05-03T09:10:38;5.57;;;2.78;;
42104;SDS011;68365;51.472;5.712;2023-05-03T09:13:09;3.38;;;2.47;;
42104;SDS011;68365;51.472;5.712;2023-05-03T09:15:36;3.97;;;2.42;;
42104;SDS011;68365;51.472;5.712;2023-05-03T09:18:08;6.90;;;2.72;;
42104;SDS011;68365;51.472;5.712;2023-05-03T09:20:36;2.33;;;2.10;;
42104;SDS011;68365;51.472;5.712;2023-05-03T09:23:05;3.58;;;2.40;;
42104;SDS011;68365;51.472;5.712;2023-05-03T09:28:07;3.22;;;2.40;;
42104;SDS011;68365;51.472;5.712;2023-05-03T09:30:33;5.43;;;2.60;;
42104;SDS011;68365;51.472;5.712;2023-05-03T09:32:59;4.40;;;2.47;;
42104;SDS011;68365;51.472;5.712;2023-05-03T09:35:25;5.68;;;2.40;;
42104;SDS011;68365;51.472;5.712;2023-05-03T09:37:52;4.72;;;2.30;;
42104;SDS011;68365;51.472;5.712;2023-05-03T09:40:21;5.20;;;2.40;;
42104;SDS011;68365;51.472;5.712;2023-05-03T09:43:16;4.00;;;2.45;;
42104;SDS011;68365;51.472;5.712;2023-05-03T09:45:44;6.32;;;2.33;;
42104;SDS011;68365;51.472;5.712;2023-05-03T09:48:12;3.78;;;2.67;;
42104;SDS011;68365;51.472;5.712;2023-05-03T09:50:37;4.00;;;2.70;;
42104;SDS011;68365;51.472;5.712;2023-05-03T09:53:05;3.17;;;2.53;;
42104;SDS011;68365;51.472;5.712;2023-05-03T09:55:32;3.17;;;2.10;;
42104;SDS011;68365;51.472;5.712;2023-05-03T09:58:09;2.95;;;2.05;;
42104;SDS011;68365;51.472;5.712;2023-05-03T10:00:35;4.40;;;2.05;;
42104;SDS011;68365;51.472;5.712;2023-05-03T10:03:06;4.25;;;1.98;;
42104;SDS011;68365;51.472;5.712;2023-05-03T10:08:59;6.13;;;2.30;;
42104;SDS011;68365;51.472;5.712;2023-05-03T10:11:41;4.65;;;2.50;;
42104;SDS011;68365;51.472;5.712;2023-05-03T10:14:15;5.72;;;3.28;;
42104;SDS011;68365;51.472;5.712;2023-05-03T10:16:52;4.93;;;3.08;;
42104;SDS011;68365;51.472;5.712;2023-05-03T10:19:30;7.07;;;3.42;;
42104;SDS011;68365;51.472;5.712;2023-05-03T10:22:21;9.40;;;3.80;;
42104;SDS011;68365;51.472;5.712;2023-05-03T10:30:26;9.00;;;3.53;;
42104;SDS011;68365;51.472;5.712;2023-05-03T10:32:57;8.73;;;3.08;;
42104;SDS011;68365;51.472;5.712;2023-05-03T10:35:27;7.65;;;3.38;;
42104;SDS011;68365;51.472;5.712;2023-05-03T10:37:54;6.45;;;3.03;;
42104;SDS011;68365;51.472;5.712;2023-05-03T10:40:21;6.70;;;3.28;;
42104;SDS011;68365;51.472;5.712;2023-05-03T10:42:51;5.30;;;3.67;;
42104;SDS011;68365;51.472;5.712;2023-05-03T10:45:24;6.63;;;3.20;;
42104;SDS011;68365;51.472;5.712;2023-05-03T10:50:37;6.72;;;3.42;;
42104;SDS011;68365;51.472;5.712;2023-05-03T10:53:03;5.07;;;2.85;;
42104;SDS011;68365;51.472;5.712;2023-05-03T10:56:03;4.15;;;3.00;;
42104;SDS011;68365;51.472;5.712;2023-05-03T10:58:37;5.65;;;3.72;;
42104;SDS011;68365;51.472;5.712;2023-05-03T11:01:12;8.68;;;3.78;;
42104;SDS011;68365;51.472;5.712;2023-05-03T11:09:00;9.70;;;4.35;;
42104;SDS011;68365;51.472;5.712;2023-05-03T11:11:28;9.57;;;3.63;;
42104;SDS011;68365;51.472;5.712;2023-05-03T11:13:55;6.82;;;4.32;;
42104;SDS011;68365;51.472;5.712;2023-05-03T11:16:21;5.03;;;3.45;;
42104;SDS011;68365;51.472;5.712;2023-05-03T11:18:47;8.43;;;3.60;;
42104;SDS011;68365;51.472;5.712;2023-05-03T11:21:14;10.23;;;3.78;;
42104;SDS011;68365;51.472;5.712;2023-05-03T11:23:41;6.50;;;3.35;;
42104;SDS011;68365;51.472;5.712;2023-05-03T11:26:08;7.25;;;3.20;;
42104;SDS011;68365;51.472;5.712;2023-05-03T11:28:40;8.70;;;3.53;;
42104;SDS011;68365;51.472;5.712;2023-05-03T11:31:11;7.05;;;3.70;;
42104;SDS011;68365;51.472;5.712;2023-05-03T11:33:40;8.13;;;3.83;;
42104;SDS011;68365;51.472;5.712;2023-05-03T11:36:09;5.60;;;2.70;;
42104;SDS011;68365;51.472;5.712;2023-05-03T11:38:37;7.38;;;2.50;;
42104;SDS011;68365;51.472;5.712;2023-05-03T11:41:11;5.22;;;2.28;;
42104;SDS011;68365;51.472;5.712;2023-05-03T11:43:45;4.85;;;2.28;;
42104;SDS011;68365;51.472;5.712;2023-05-03T11:46:14;5.32;;;2.10;;
42104;SDS011;68365;51.472;5.712;2023-05-03T11:48:53;5.03;;;2.10;;
42104;SDS011;68365;51.472;5.712;2023-05-03T11:51:21;4.82;;;1.75;;
42104;SDS011;68365;51.472;5.712;2023-05-03T11:53:47;3.83;;;1.77;;
42104;SDS011;68365;51.472;5.712;2023-05-03T11:56:16;5.85;;;1.90;;
42104;SDS011;68365;51.472;5.712;2023-05-03T11:58:51;4.25;;;1.60;;
42104;SDS011;68365;51.472;5.712;2023-05-03T12:01:20;3.33;;;1.50;;
42104;SDS011;68365;51.472;5.712;2023-05-03T12:03:52;2.90;;;1.40;;
42104;SDS011;68365;51.472;5.712;2023-05-03T12:06:23;4.32;;;1.45;;
42104;SDS011;68365;51.472;5.712;2023-05-03T12:08:51;2.88;;;1.40;;
42104;SDS011;68365;51.472;5.712;2023-05-03T12:11:17;2.90;;;1.60;;
42104;SDS011;68365;51.472;5.712;2023-05-03T12:13:43;5.93;;;1.58;;
42104;SDS011;68365;51.472;5.712;2023-05-03T12:16:09;2.75;;;1.35;;
42104;SDS011;68365;51.472;5.712;2023-05-03T12:18:54;3.05;;;1.27;;
42104;SDS011;68365;51.472;5.712;2023-05-03T12:21:32;2.80;;;1.27;;
42104;SDS011;68365;51.472;5.712;2023-05-03T12:24:13;2.80;;;1.40;;
42104;SDS011;68365;51.472;5.712;2023-05-03T12:26:46;3.53;;;1.33;;
42104;SDS011;68365;51.472;5.712;2023-05-03T12:29:13;3.22;;;1.30;;
42104;SDS011;68365;51.472;5.712;2023-05-03T12:31:43;3.22;;;1.20;;
42104;SDS011;68365;51.472;5.712;2023-05-03T12:34:09;3.38;;;1.40;;
42104;SDS011;68365;51.472;5.712;2023-05-03T12:36:36;2.75;;;1.35;;
42104;SDS011;68365;51.472;5.712;2023-05-03T12:39:02;3.42;;;1.45;;
42104;SDS011;68365;51.472;5.712;2023-05-03T12:41:28;3.13;;;1.38;;
42104;SDS011;68365;51.472;5.712;2023-05-03T12:43:58;2.88;;;1.55;;
42104;SDS011;68365;51.472;5.712;2023-05-03T12:46:28;4.68;;;1.30;;
42104;SDS011;68365;51.472;5.712;2023-05-03T12:48:53;3.80;;;1.30;;
42104;SDS011;68365;51.472;5.712;2023-05-03T12:51:19;3.35;;;1.38;;
42104;SDS011;68365;51.472;5.712;2023-05-03T12:53:45;3.47;;;1.40;;
42104;SDS011;68365;51.472;5.712;2023-05-03T12:56:12;2.58;;;1.10;;
42104;SDS011;68365;51.472;5.712;2023-05-03T12:58:38;1.75;;;1.30;;
42104;SDS011;68365;51.472;5.712;2023-05-03T13:01:06;2.20;;;1.15;;
42104;SDS011;68365;51.472;5.712;2023-05-03T13:03:32;3.42;;;2.40;;
42104;SDS011;68365;51.472;5.712;2023-05-03T13:05:59;7.85;;;3.05;;
42104;SDS011;68365;51.472;5.712;2023-05-03T13:08:26;6.72;;;3.13;;
42104;SDS011;68365;51.472;5.712;2023-05-03T13:10:52;5.22;;;3.15;;
42104;SDS011;68365;51.472;5.712;2023-05-03T13:13:17;7.68;;;3.15;;
42104;SDS011;68365;51.472;5.712;2023-05-03T13:15:44;6.00;;;2.85;;
42104;SDS011;68365;51.472;5.712;2023-05-03T13:18:10;5.88;;;3.05;;
42104;SDS011;68365;51.472;5.712;2023-05-03T13:20:38;3.85;;;2.90;;
42104;SDS011;68365;51.472;5.712;2023-05-03T13:23:04;6.10;;;3.35;;
42104;SDS011;68365;51.472;5.712;2023-05-03T13:25:30;5.47;;;2.70;;
42104;SDS011;68365;51.472;5.712;2023-05-03T13:27:58;7.60;;;3.30;;
42104;SDS011;68365;51.472;5.712;2023-05-03T13:30:25;6.30;;;3.25;;
42104;SDS011;68365;51.472;5.712;2023-05-03T13:32:51;6.47;;;3.15;;
42104;SDS011;68365;51.472;5.712;2023-05-03T13:35:17;8.23;;;3.30;;
42104;SDS011;68365;51.472;5.712;2023-05-03T13:37:44;8.88;;;3.10;;
42104;SDS011;68365;51.472;5.712;2023-05-03T13:40:09;8.35;;;4.00;;
42104;SDS011;68365;51.472;5.712;2023-05-03T13:42:38;11.40;;;3.25;;
42104;SDS011;68365;51.472;5.712;2023-05-03T13:45:04;5.40;;;3.05;;
42104;SDS011;68365;51.472;5.712;2023-05-03T13:47:30;4.47;;;2.70;;
42104;SDS011;68365;51.472;5.712;2023-05-03T13:49:56;5.45;;;3.20;;
42104;SDS011;68365;51.472;5.712;2023-05-03T13:52:22;6.53;;;3.35;;
42104;SDS011;68365;51.472;5.712;2023-05-03T13:54:48;5.72;;;3.42;;
42104;SDS011;68365;51.472;5.712;2023-05-03T13:57:14;5.10;;;2.85;;
42104;SDS011;68365;51.472;5.712;2023-05-03T13:59:42;7.38;;;3.03;;
42104;SDS011;68365;51.472;5.712;2023-05-03T14:02:07;5.95;;;3.17;;
42104;SDS011;68365;51.472;5.712;2023-05-03T14:04:33;7.85;;;3.10;;
42104;SDS011;68365;51.472;5.712;2023-05-03T14:06:59;6.82;;;2.92;;
42104;SDS011;68365;51.472;5.712;2023-05-03T14:09:30;7.90;;;3.20;;
42104;SDS011;68365;51.472;5.712;2023-05-03T14:11:56;10.40;;;3.42;;
42104;SDS011;68365;51.472;5.712;2023-05-03T14:14:21;5.57;;;3.15;;
42104;SDS011;68365;51.472;5.712;2023-05-03T14:16:51;5.07;;;2.78;;
42104;SDS011;68365;51.472;5.712;2023-05-03T14:19:17;5.65;;;3.22;;
42104;SDS011;68365;51.472;5.712;2023-05-03T14:21:43;6.05;;;3.20;;
42104;SDS011;68365;51.472;5.712;2023-05-03T14:24:13;5.38;;;3.20;;
42104;SDS011;68365;51.472;5.712;2023-05-03T14:26:39;8.82;;;2.90;;
42104;SDS011;68365;51.472;5.712;2023-05-03T14:29:05;9.60;;;3.25;;
42104;SDS011;68365;51.472;5.712;2023-05-03T14:31:34;8.40;;;3.40;;
42104;SDS011;68365;51.472;5.712;2023-05-03T14:34:00;8.02;;;3.05;;
42104;SDS011;68365;51.472;5.712;2023-05-03T14:36:26;5.90;;;3.03;;
42104;SDS011;68365;51.472;5.712;2023-05-03T14:38:59;5.38;;;2.95;;
42104;SDS011;68365;51.472;5.712;2023-05-03T14:41:29;6.97;;;2.88;;
42104;SDS011;68365;51.472;5.712;2023-05-03T14:43:58;6.38;;;3.25;;
42104;SDS011;68365;51.472;5.712;2023-05-03T14:46:24;10.18;;;3.25;;
42104;SDS011;68365;51.472;5.712;2023-05-03T14:48:50;9.18;;;2.10;;
42104;SDS011;68365;51.472;5.712;2023-05-03T14:51:19;6.32;;;2.15;;
42104;SDS011;68365;51.472;5.712;2023-05-03T14:53:45;11.95;;;2.80;;
42104;SDS011;68365;51.472;5.712;2023-05-03T14:56:10;10.35;;;3.08;;
42104;SDS011;68365;51.472;5.712;2023-05-03T14:58:48;9.85;;;2.95;;
42104;SDS011;68365;51.472;5.712;2023-05-03T15:01:18;8.85;;;3.17;;
42104;SDS011;68365;51.472;5.712;2023-05-03T15:03:44;10.40;;;3.35;;
42104;SDS011;68365;51.472;5.712;2023-05-03T15:06:37;13.23;;;4.70;;
42104;SDS011;68365;51.472;5.712;2023-05-03T15:09:05;11.80;;;4.40;;
42104;SDS011;68365;51.472;5.712;2023-05-03T15:11:39;18.65;;;4.88;;
42104;SDS011;68365;51.472;5.712;2023-05-03T15:14:11;15.85;;;4.72;;
42104;SDS011;68365;51.472;5.712;2023-05-03T15:16:37;20.38;;;4.55;;
42104;SDS011;68365;51.472;5.712;2023-05-03T15:19:05;9.95;;;4.28;;
42104;SDS011;68365;51.472;5.712;2023-05-03T15:21:42;25.33;;;7.07;;
42104;SDS011;68365;51.472;5.712;2023-05-03T15:24:24;24.50;;;7.00;;